Time;durP1;ratioP1;P1;durP2;ratioP2;P2;SDS_P1;SDS_P2;PMS_P1;PMS_P2;Temp;Humidity;BMP_temperature;BMP_pressure;BME280_temperature;BME280_humidity;BME280_pressure;Samples;Min_cycle;Max_cycle;Signal;HPM_P1;HPM_P2
2021/12/26 00:01:27;;;;;;;6.05;3.42;;;8.20;91.50;;;;;;1905259;74;21081;-40
2021/12/26 00:03:57;;;;;;;7.95;4.12;;;8.20;91.50;;;;;;1905316;74;21055;-40
2021/12/26 00:06:28;;;;;;;7.17;3.98;;;8.20;91.50;;;;;;1905331;75;21716;-40
2021/12/26 00:08:58;;;;;;;4.85;2.60;;;8.20;91.50;;;;;;1905270;75;21023;-40
2021/12/26 00:11:28;;;;;;;3.55;2.02;;;8.20;91.40;;;;;;1905278;75;21153;-41
2021/12/26 00:13:57;;;;;;;11.48;4.87;;;8.20;91.40;;;;;;1905245;74;21089;-40
2021/12/26 00:16:27;;;;;;;6.85;3.67;;;8.20;91.30;;;;;;1905353;75;21085;-40
2021/12/26 00:18:56;;;;;;;7.50;2.62;;;8.30;91.30;;;;;;1905348;75;21063;-40
2021/12/26 00:21:26;;;;;;;6.87;3.05;;;8.20;91.40;;;;;;1905267;75;21072;-41
2021/12/26 00:23:58;;;;;;;6.37;3.80;;;8.30;91.20;;;;;;1905480;75;21118;-41
2021/12/26 00:26:26;;;;;;;10.43;4.28;;;8.30;91.10;;;;;;1905314;75;21039;-40
2021/12/26 00:28:56;;;;;;;3.50;2.55;;;8.30;90.90;;;;;;1905428;75;21027;-42
2021/12/26 00:31:25;;;;;;;6.87;3.60;;;8.40;91.00;;;;;;1905398;74;21023;-41
2021/12/26 00:33:55;;;;;;;5.70;2.70;;;8.40;90.90;;;;;;1905355;75;21098;-40
2021/12/26 00:36:25;;;;;;;5.67;4.25;;;8.40;90.70;;;;;;1905417;75;21498;-40
2021/12/26 00:38:55;;;;;;;9.20;3.92;;;8.50;90.60;;;;;;1905349;75;21039;-40
2021/12/26 00:41:24;;;;;;;8.30;3.25;;;8.50;90.50;;;;;;1905357;74;21046;-40
2021/12/26 00:43:54;;;;;;;9.08;3.27;;;8.50;90.30;;;;;;1905313;74;21079;-40
2021/12/26 00:46:24;;;;;;;6.42;2.87;;;8.50;90.10;;;;;;1905319;75;21145;-40
2021/12/26 00:48:53;;;;;;;6.33;2.83;;;8.60;90.10;;;;;;1905329;75;21019;-40
2021/12/26 00:51:23;;;;;;;8.88;3.40;;;8.60;90.10;;;;;;1905341;75;21035;-40
2021/12/26 00:53:52;;;;;;;4.47;2.40;;;8.60;89.80;;;;;;1905325;75;21081;-40
2021/12/26 00:56:21;;;;;;;7.37;3.65;;;8.60;89.80;;;;;;1905482;75;21105;-40
2021/12/26 00:58:51;;;;;;;8.73;3.58;;;8.60;90.00;;;;;;1905390;75;21093;-39
2021/12/26 01:01:20;;;;;;;7.85;3.70;;;8.60;90.00;;;;;;1905384;75;21156;-40
2021/12/26 01:03:51;;;;;;;4.28;2.65;;;8.60;90.20;;;;;;1905429;74;21059;-40
2021/12/26 01:06:20;;;;;;;9.03;3.62;;;8.60;89.00;;;;;;1905356;75;21019;-40
2021/12/26 01:08:51;;;;;;;8.55;3.47;;;8.60;89.50;;;;;;1905347;75;21104;-40
2021/12/26 01:11:34;;;;;;;6.53;4.40;;;8.60;89.50;;;;;;1905486;75;20992;-40
2021/12/26 01:13:53;;;;;;;11.33;3.60;;;8.60;89.40;;;;;;1904480;74;21023;-40
2021/12/26 01:16:28;;;;;;;6.70;2.30;;;8.60;89.50;;;;;;1839517;74;21104;-40
2021/12/26 01:19:06;;;;;;;4.47;3.37;;;8.60;89.90;;;;;;1905482;75;21027;-40
2021/12/26 01:21:29;;;;;;;6.22;3.20;;;8.60;90.10;;;;;;1904953;74;21027;-40
2021/12/26 01:24:02;;;;;;;5.78;3.00;;;8.60;90.10;;;;;;1904665;74;21062;-40
2021/12/26 01:26:32;;;;;;;8.35;2.95;;;8.50;90.20;;;;;;1905341;74;21023;-39
2021/12/26 01:29:02;;;;;;;4.95;2.67;;;8.50;90.10;;;;;;1905304;75;21019;-40
2021/12/26 01:31:33;;;;;;;7.17;3.12;;;8.40;90.00;;;;;;1905193;75;21035;-40
2021/12/26 01:34:06;;;;;;;9.35;3.20;;;8.40;90.00;;;;;;1904548;74;21030;-40
2021/12/26 01:36:55;;;;;;;7.58;3.80;;;8.40;90.20;;;;;;1793909;79;21073;-40
2021/12/26 01:39:26;;;;;;;4.97;2.42;;;8.30;90.10;;;;;;1787240;79;21050;-40
2021/12/26 01:42:08;;;;;;;2.33;1.92;;;8.30;90.00;;;;;;1844188;74;21086;-40
2021/12/26 01:44:49;;;;;;;6.42;3.20;;;8.30;90.10;;;;;;1903123;74;21127;-40
2021/12/26 01:47:20;;;;;;;3.20;2.47;;;8.30;90.20;;;;;;1905168;74;21118;-40
2021/12/26 01:49:49;;;;;;;6.85;3.05;;;8.20;90.20;;;;;;1905294;75;20996;-40
2021/12/26 01:52:19;;;;;;;5.60;3.05;;;8.30;90.20;;;;;;1905356;75;21020;-40
2021/12/26 01:55:00;;;;;;;10.20;4.00;;;8.20;90.20;;;;;;1905350;74;21055;-40
2021/12/26 01:57:20;;;;;;;4.60;2.42;;;8.20;90.20;;;;;;1904454;74;21031;-40
2021/12/26 01:59:50;;;;;;;5.62;3.70;;;8.20;90.10;;;;;;1905418;75;21031;-40
2021/12/26 02:02:22;;;;;;;5.97;3.12;;;8.20;90.20;;;;;;1905111;74;21083;-40
2021/12/26 02:04:51;;;;;;;2.90;2.33;;;8.20;90.20;;;;;;1905324;74;21028;-40
2021/12/26 02:07:21;;;;;;;2.77;2.10;;;8.30;90.00;;;;;;1905338;75;21454;-40
2021/12/26 02:09:51;;;;;;;8.40;3.72;;;8.30;90.10;;;;;;1905400;74;21027;-40
2021/12/26 02:12:22;;;;;;;7.95;3.52;;;8.30;90.20;;;;;;1905176;75;21046;-39
2021/12/26 02:14:52;;;;;;;10.03;2.85;;;8.30;90.20;;;;;;1905354;74;21027;-39
2021/12/26 02:17:23;;;;;;;8.65;3.40;;;8.20;90.20;;;;;;1905035;74;21072;-40
2021/12/26 02:19:57;;;;;;;4.67;2.80;;;8.30;90.20;;;;;;1905502;74;21028;-40
2021/12/26 02:22:30;;;;;;;6.42;3.40;;;8.20;90.10;;;;;;1905125;74;21105;-40
2021/12/26 02:27:36;;;;;;;7.62;3.33;;;8.20;90.00;;;;;;1905429;75;21113;-40
2021/12/26 02:30:07;;;;;;;3.72;2.55;;;8.20;90.10;;;;;;1905363;75;21132;-40
2021/12/26 02:32:37;;;;;;;4.12;2.02;;;8.20;90.10;;;;;;1905332;74;21443;-40
2021/12/26 02:35:07;;;;;;;4.95;3.05;;;8.20;90.20;;;;;;1905349;75;21020;-40
2021/12/26 02:37:36;;;;;;;3.83;2.17;;;8.20;90.20;;;;;;1905370;75;21051;-40
2021/12/26 02:40:07;;;;;;;11.50;3.58;;;8.20;90.10;;;;;;1905408;75;21098;-40
2021/12/26 02:42:36;;;;;;;7.45;3.58;;;8.20;90.20;;;;;;1905293;74;21003;-40
2021/12/26 02:45:07;;;;;;;5.25;3.72;;;8.20;90.20;;;;;;1905395;75;21047;-40
2021/12/26 02:47:41;;;;;;;7.20;3.02;;;8.20;90.30;;;;;;1905320;75;21089;-40
2021/12/26 02:50:14;;;;;;;;;;;8.20;90.30;;;;;;1908134;75;21105;-40
2021/12/26 02:52:44;;;;;;;5.03;3.15;;;8.20;90.60;;;;;;1905386;75;20113;-40
2021/12/26 02:55:15;;;;;;;8.15;4.30;;;8.20;90.50;;;;;;1905343;74;21019;-40
2021/12/26 02:57:49;;;;;;;8.38;3.95;;;8.30;90.50;;;;;;1905384;75;21073;-40
2021/12/26 03:00:19;;;;;;;;;;;8.30;90.50;;;;;;1907806;74;21052;-40
2021/12/26 03:02:52;;;;;;;4.17;2.40;;;8.30;90.50;;;;;;1905352;75;20105;-40
2021/12/26 03:05:24;;;;;;;7.72;3.83;;;8.30;90.40;;;;;;1905241;75;21020;-40
2021/12/26 03:07:53;;;;;;;4.67;3.00;;;8.30;90.40;;;;;;1905416;75;21012;-40
2021/12/26 03:10:26;;;;;;;3.25;2.30;;;8.40;90.30;;;;;;1905323;75;21028;-40
2021/12/26 03:13:00;;;;;;;5.10;3.60;;;8.40;90.10;;;;;;1905433;75;21113;-40
2021/12/26 03:15:31;;;;;;;7.67;3.35;;;8.40;90.00;;;;;;1905568;75;21083;-40
2021/12/26 03:18:01;;;;;;;5.03;3.20;;;8.50;90.10;;;;;;1905500;74;21077;-40
2021/12/26 03:20:34;;;;;;;11.57;4.15;;;8.50;90.00;;;;;;1905336;75;21024;-40
2021/12/26 03:23:03;;;;;;;7.08;4.10;;;8.50;90.10;;;;;;1905448;75;21073;-40
2021/12/26 03:25:33;;;;;;;6.12;3.95;;;8.50;90.00;;;;;;1905338;74;21113;-41
2021/12/26 03:28:04;;;;;;;8.00;4.35;;;8.40;90.00;;;;;;1905435;75;21028;-40
2021/12/26 03:30:34;;;;;;;2.45;2.05;;;8.40;90.10;;;;;;1905478;75;21031;-40
2021/12/26 03:33:06;;;;;;;4.28;3.10;;;8.40;89.90;;;;;;1905425;75;21059;-40
2021/12/26 03:35:36;;;;;;;3.98;3.33;;;8.40;90.00;;;;;;1905297;75;21083;-40
2021/12/26 03:38:08;;;;;;;5.62;3.08;;;8.40;89.80;;;;;;1905262;74;21087;-40
2021/12/26 03:40:55;;;;;;;6.17;4.17;;;8.40;89.80;;;;;;1905261;74;21060;-40
2021/12/26 03:43:25;;;;;;;6.15;2.90;;;8.40;89.90;;;;;;1905304;75;21070;-41
2021/12/26 03:45:56;;;;;;;8.00;4.03;;;8.40;89.90;;;;;;1905363;75;21085;-40
2021/12/26 03:48:27;;;;;;;11.40;3.27;;;8.50;89.90;;;;;;1905476;75;21074;-40
2021/12/26 03:50:58;;;;;;;7.72;4.53;;;8.40;89.90;;;;;;1905507;75;21055;-40
2021/12/26 03:53:27;;;;;;;5.65;3.15;;;8.40;89.80;;;;;;1905369;74;21023;-40
2021/12/26 03:55:58;;;;;;;10.30;3.70;;;8.50;89.70;;;;;;1905480;74;21023;-40
2021/12/26 03:58:28;;;;;;;7.58;4.58;;;8.50;89.70;;;;;;1905439;74;21482;-40
2021/12/26 04:00:57;;;;;;;4.22;3.37;;;8.50;89.80;;;;;;1905451;75;21011;-40
2021/12/26 04:03:26;;;;;;;4.65;2.98;;;8.60;89.20;;;;;;1905517;75;21093;-40
2021/12/26 04:06:03;;;;;;;6.62;3.40;;;8.60;89.20;;;;;;1918743;74;21066;-40
2021/12/26 04:08:34;;;;;;;5.25;3.40;;;8.60;88.90;;;;;;1924071;74;21109;-40
2021/12/26 04:11:04;;;;;;;5.25;3.00;;;8.60;88.80;;;;;;1924803;74;21030;-40
2021/12/26 04:13:35;;;;;;;6.72;3.40;;;8.60;88.70;;;;;;1924691;74;20995;-40
2021/12/26 04:16:05;;;;;;;5.00;2.77;;;8.60;88.60;;;;;;1924910;74;21551;-40
2021/12/26 04:18:35;;;;;;;10.88;3.92;;;8.60;88.30;;;;;;1924744;74;21073;-40
2021/12/26 04:21:09;;;;;;;9.38;3.90;;;8.60;88.50;;;;;;1924796;74;21014;-40
2021/12/26 04:23:37;;;;;;;7.70;3.98;;;8.70;88.50;;;;;;1923919;74;21070;-40
2021/12/26 04:26:06;;;;;;;11.05;4.15;;;8.70;88.50;;;;;;1924775;74;21084;-40
2021/12/26 04:28:36;;;;;;;7.15;2.95;;;8.70;88.60;;;;;;1924894;74;21009;-40
2021/12/26 04:31:06;;;;;;;12.05;4.17;;;8.70;88.90;;;;;;1924818;74;21038;-40
2021/12/26 04:33:36;;;;;;;5.28;3.00;;;8.70;88.80;;;;;;1924823;74;21026;-40
2021/12/26 04:36:06;;;;;;;5.42;3.67;;;8.60;88.70;;;;;;1924896;74;21061;-40
2021/12/26 04:38:36;;;;;;;8.13;4.10;;;8.60;88.50;;;;;;1924874;74;21094;-40
2021/12/26 04:41:06;;;;;;;5.55;3.80;;;8.70;88.80;;;;;;1924810;74;21175;-40
2021/12/26 04:43:55;;;;;;;5.70;3.62;;;8.60;88.80;;;;;;1853118;77;21080;-40
2021/12/26 04:46:35;;;;;;;8.98;3.65;;;8.70;88.70;;;;;;1828352;78;21074;-40
2021/12/26 04:49:06;;;;;;;5.35;3.30;;;8.60;88.80;;;;;;1884813;74;21093;-40
2021/12/26 04:51:35;;;;;;;10.68;4.70;;;8.60;88.40;;;;;;1924815;74;21123;-40
2021/12/26 04:54:06;;;;;;;6.75;3.75;;;8.60;88.80;;;;;;1924606;74;21130;-41
2021/12/26 04:56:36;;;;;;;6.60;4.08;;;8.60;88.70;;;;;;1924779;74;21119;-41
2021/12/26 04:59:05;;;;;;;6.67;3.58;;;8.70;88.90;;;;;;1924767;74;21050;-40
2021/12/26 05:01:35;;;;;;;7.45;4.53;;;8.60;88.90;;;;;;1924724;74;21093;-40
2021/12/26 05:04:05;;;;;;;5.40;3.65;;;8.60;88.90;;;;;;1924727;74;21011;-40
2021/12/26 05:06:35;;;;;;;5.22;3.85;;;8.60;89.00;;;;;;1911597;74;21051;-40
2021/12/26 05:09:05;;;;;;;10.95;5.55;;;8.60;89.00;;;;;;1905398;75;21117;-39
2021/12/26 05:11:37;;;;;;;7.62;3.75;;;8.60;89.00;;;;;;1905402;75;21023;-40
2021/12/26 05:14:05;;;;;;;9.13;4.47;;;8.70;88.90;;;;;;1905411;74;21207;-41
2021/12/26 05:16:35;;;;;;;12.07;5.10;;;8.70;89.00;;;;;;1905333;75;21027;-40
2021/12/26 05:19:05;;;;;;;7.47;3.80;;;8.70;89.00;;;;;;1905433;75;20999;-40
2021/12/26 05:21:34;;;;;;;9.58;4.90;;;8.70;89.20;;;;;;1905421;75;21019;-40
2021/12/26 05:24:03;;;;;;;9.03;4.75;;;8.70;89.00;;;;;;1905384;75;21469;-41
2021/12/26 05:26:32;;;;;;;6.47;4.78;;;8.70;89.00;;;;;;1905246;74;21031;-41
2021/12/26 05:29:03;;;;;;;11.70;4.87;;;8.70;89.10;;;;;;1905349;74;21035;-41
2021/12/26 05:31:33;;;;;;;12.73;4.75;;;8.70;89.20;;;;;;1905464;75;21081;-40
2021/12/26 05:34:02;;;;;;;13.18;4.83;;;8.70;89.30;;;;;;1905471;75;21078;-40
2021/12/26 05:36:32;;;;;;;8.65;3.12;;;8.70;89.40;;;;;;1905439;75;21114;-40
2021/12/26 05:39:01;;;;;;;11.50;4.67;;;8.70;89.70;;;;;;1905307;75;21031;-41
2021/12/26 05:41:33;;;;;;;15.43;4.75;;;8.70;89.50;;;;;;1905223;74;21027;-40
2021/12/26 05:44:04;;;;;;;7.80;3.98;;;8.70;89.70;;;;;;1871874;74;21082;-40
2021/12/26 05:46:33;;;;;;;7.10;4.53;;;8.70;89.60;;;;;;1905275;74;21019;-41
2021/12/26 05:49:03;;;;;;;10.90;5.25;;;8.70;90.00;;;;;;1905444;75;21105;-40
2021/12/26 05:51:33;;;;;;;7.62;4.45;;;8.70;90.00;;;;;;1902581;74;21015;-41
2021/12/26 05:54:20;;;;;;;5.22;2.80;;;8.70;90.00;;;;;;1902208;74;21067;-41
2021/12/26 05:56:50;;;;;;;8.00;4.50;;;8.70;89.90;;;;;;1905569;74;21031;-41
2021/12/26 05:59:21;;;;;;;8.23;4.72;;;8.70;89.90;;;;;;1905389;75;21110;-42
2021/12/26 06:01:50;;;;;;;8.00;3.98;;;8.70;90.00;;;;;;1905354;74;21020;-41
2021/12/26 06:04:20;;;;;;;9.73;4.33;;;8.70;89.70;;;;;;1905344;74;21019;-42
2021/12/26 06:06:49;;;;;;;16.60;6.15;;;8.70;89.70;;;;;;1905278;74;21158;-41
2021/12/26 06:09:19;;;;;;;6.35;2.98;;;8.70;89.60;;;;;;1905350;75;21043;-40
2021/12/26 06:11:50;;;;;;;7.85;3.22;;;8.80;89.60;;;;;;1905421;75;21140;-41
2021/12/26 06:14:19;;;;;;;8.70;4.85;;;8.80;89.20;;;;;;1905333;74;21486;-41
2021/12/26 06:16:48;;;;;;;5.45;2.98;;;8.80;89.70;;;;;;1905444;74;21105;-41
2021/12/26 06:19:34;;;;;;;7.72;3.83;;;8.90;88.90;;;;;;1903151;75;21048;-41
2021/12/26 06:22:21;;;;;;;6.62;4.03;;;8.80;88.70;;;;;;1905334;75;21056;-41
2021/12/26 06:25:09;;;;;;;2.90;2.40;;;8.90;88.80;;;;;;1905325;74;21027;-41
2021/12/26 06:27:43;;;;;;;10.10;3.60;;;9.00;88.50;;;;;;1876609;75;21035;-41
2021/12/26 06:30:32;;;;;;;6.00;4.03;;;8.90;88.40;;;;;;1903154;75;21035;-41
2021/12/26 06:33:19;;;;;;;5.78;4.15;;;9.00;88.50;;;;;;1905340;75;21101;-41
2021/12/26 06:35:53;;;;;;;10.35;5.75;;;9.00;88.40;;;;;;1839182;74;21030;-41
2021/12/26 06:38:40;;;;;;;5.00;3.98;;;9.10;88.30;;;;;;1905318;75;21048;-42
2021/12/26 06:41:27;;;;;;;6.62;4.67;;;9.10;88.50;;;;;;1905240;75;21140;-41
2021/12/26 06:44:14;;;;;;;8.88;4.62;;;9.00;88.70;;;;;;1905311;75;21109;-41
2021/12/26 06:46:48;;;;;;;9.98;3.83;;;9.10;88.80;;;;;;1905224;75;21145;-41
2021/12/26 06:49:19;;;;;;;8.73;4.50;;;9.10;88.80;;;;;;1904770;74;21109;-42
2021/12/26 06:51:50;;;;;;;8.13;4.58;;;9.10;88.80;;;;;;1905231;75;21093;-41
2021/12/26 06:54:19;;;;;;;13.50;5.00;;;9.10;89.00;;;;;;1905508;74;21101;-41
2021/12/26 06:56:49;;;;;;;13.15;4.45;;;9.10;89.10;;;;;;1905388;75;21047;-42
2021/12/26 06:59:18;;;;;;;7.42;4.22;;;9.10;89.00;;;;;;1905295;74;21081;-40
2021/12/26 07:01:48;;;;;;;7.90;4.40;;;9.10;89.20;;;;;;1905339;74;21023;-40
2021/12/26 07:04:18;;;;;;;7.08;3.25;;;9.20;89.40;;;;;;1905269;74;21023;-40
2021/12/26 07:06:49;;;;;;;10.75;4.30;;;9.20;89.80;;;;;;1910823;74;21112;-42
2021/12/26 07:09:25;;;;;;;8.48;4.03;;;9.20;89.30;;;;;;1924339;74;21147;-41
2021/12/26 07:11:55;;;;;;;5.47;3.35;;;9.20;89.00;;;;;;1924722;74;21023;-40
2021/12/26 07:14:31;;;;;;;10.80;4.10;;;9.30;89.00;;;;;;1922337;74;21059;-41
2021/12/26 07:17:01;;;;;;;10.63;5.05;;;9.30;88.90;;;;;;1924653;74;21092;-41
2021/12/26 07:19:30;;;;;;;10.88;5.03;;;9.40;88.80;;;;;;1924616;74;21051;-41
2021/12/26 07:22:01;;;;;;;14.10;5.05;;;9.40;88.90;;;;;;1923983;74;21063;-41
2021/12/26 07:24:31;;;;;;;9.08;5.25;;;9.40;88.60;;;;;;1924956;74;21019;-42
2021/12/26 07:27:00;;;;;;;10.50;4.92;;;9.40;88.50;;;;;;1924643;74;21027;-41
2021/12/26 07:29:41;;;;;;;8.98;4.25;;;9.40;88.10;;;;;;1852940;76;21049;-40
2021/12/26 07:32:11;;;;;;;7.72;4.83;;;9.50;88.20;;;;;;1924546;74;21026;-41
2021/12/26 07:34:41;;;;;;;7.35;5.08;;;9.40;87.80;;;;;;1924706;74;21089;-41
2021/12/26 07:37:11;;;;;;;18.15;7.30;;;9.50;87.90;;;;;;1924635;74;21023;-41
2021/12/26 07:39:41;;;;;;;7.83;4.60;;;9.50;88.00;;;;;;1924195;74;21041;-40
2021/12/26 07:42:11;;;;;;;7.08;3.85;;;9.50;87.40;;;;;;1924611;74;21023;-40
2021/12/26 07:44:48;;;;;;;9.68;5.65;;;9.60;87.10;;;;;;1888025;74;21100;-43
2021/12/26 07:47:32;;;;;;;8.35;4.62;;;9.60;87.40;;;;;;1921754;74;21062;-40
2021/12/26 07:50:01;;;;;;;9.13;4.37;;;9.60;87.30;;;;;;1924642;74;21105;-41
2021/12/26 07:52:52;;;;;;;9.45;4.20;;;9.60;87.30;;;;;;1924707;74;21103;-41
2021/12/26 07:55:37;;;;;;;8.63;4.65;;;9.60;87.00;;;;;;1924834;74;21521;-41
2021/12/26 07:58:25;;;;;;;14.95;5.60;;;9.70;87.20;;;;;;1924657;74;21063;-41
2021/12/26 08:01:12;;;;;;;5.37;3.42;;;9.70;86.90;;;;;;1924684;74;21030;-42
2021/12/26 08:03:43;;;;;;;12.18;3.55;;;9.80;86.80;;;;;;1923852;74;21176;-41
2021/12/26 08:06:23;;;;;;;13.78;4.58;;;9.70;87.00;;;;;;1899986;74;21038;-41
2021/12/26 08:08:53;;;;;;;9.23;4.53;;;9.80;86.40;;;;;;1906791;74;21453;-41
2021/12/26 08:11:23;;;;;;;7.95;4.00;;;9.80;86.90;;;;;;1905355;75;21101;-40
2021/12/26 08:13:53;;;;;;;10.98;4.83;;;9.80;86.30;;;;;;1905401;75;21019;-41
2021/12/26 08:16:22;;;;;;;6.42;4.37;;;9.90;85.90;;;;;;1905353;75;21023;-41
2021/12/26 08:18:51;;;;;;;9.28;4.40;;;9.90;86.10;;;;;;1905324;75;21027;-41
2021/12/26 08:21:21;;;;;;;9.85;4.30;;;9.90;85.50;;;;;;1905399;74;21067;-41
2021/12/26 08:23:50;;;;;;;9.15;3.45;;;9.90;85.40;;;;;;1905470;75;21023;-41
2021/12/26 08:26:19;;;;;;;8.93;3.87;;;10.00;84.00;;;;;;1905320;75;21043;-41
2021/12/26 08:28:49;;;;;;;6.17;4.08;;;10.00;84.80;;;;;;1905428;75;21003;-41
2021/12/26 08:31:20;;;;;;;10.30;4.75;;;10.10;84.60;;;;;;1905402;75;21015;-40
2021/12/26 08:33:49;;;;;;;7.10;3.33;;;10.10;84.20;;;;;;1905336;75;21448;-42
2021/12/26 08:36:22;;;;;;;10.40;4.47;;;10.10;83.00;;;;;;1905283;74;21085;-41
2021/12/26 08:38:51;;;;;;;10.08;5.85;;;10.20;83.80;;;;;;1905324;74;21036;-41
2021/12/26 08:41:23;;;;;;;5.80;3.75;;;10.20;83.40;;;;;;1905316;75;20996;-41
2021/12/26 08:43:53;;;;;;;5.92;3.65;;;10.20;83.00;;;;;;1905529;74;21039;-41
2021/12/26 08:46:23;;;;;;;7.95;4.22;;;10.30;82.70;;;;;;1905350;74;21035;-41
2021/12/26 08:48:53;;;;;;;7.92;4.30;;;10.30;82.70;;;;;;1905475;74;20996;-42
2021/12/26 08:51:23;;;;;;;8.15;4.35;;;10.30;82.30;;;;;;1905314;75;21093;-41
2021/12/26 08:53:52;;;;;;;8.80;3.85;;;10.30;82.60;;;;;;1905425;75;21023;-41
2021/12/26 08:56:21;;;;;;;9.03;4.17;;;10.40;81.60;;;;;;1905341;75;21089;-41
2021/12/26 08:58:50;;;;;;;10.05;3.33;;;10.40;81.90;;;;;;1905378;74;21125;-41
2021/12/26 09:01:20;;;;;;;9.10;4.25;;;10.40;81.30;;;;;;1905424;74;21043;-41
2021/12/26 09:03:49;;;;;;;9.60;4.65;;;10.40;81.30;;;;;;1905345;75;21000;-41
2021/12/26 09:06:19;;;;;;;6.12;4.15;;;10.50;81.50;;;;;;1905200;75;21031;-41
2021/12/26 09:08:48;;;;;;;9.00;4.12;;;10.40;80.90;;;;;;1905405;74;21130;-42
2021/12/26 09:11:18;;;;;;;9.00;4.53;;;10.40;81.30;;;;;;1905135;75;21116;-41
2021/12/26 09:13:47;;;;;;;9.75;3.83;;;10.40;81.20;;;;;;1905376;75;21028;-40
2021/12/26 09:16:16;;;;;;;6.58;4.22;;;10.40;81.50;;;;;;1905308;75;21019;-41
2021/12/26 09:18:46;;;;;;;7.22;4.28;;;10.40;81.20;;;;;;1905342;75;21083;-40
2021/12/26 09:21:15;;;;;;;13.05;5.05;;;10.50;80.70;;;;;;1905396;75;21027;-41
2021/12/26 09:23:45;;;;;;;7.15;3.92;;;10.50;81.10;;;;;;1905371;75;21023;-41
2021/12/26 09:26:14;;;;;;;12.03;6.42;;;10.50;80.90;;;;;;1905393;74;21039;-41
2021/12/26 09:28:43;;;;;;;7.37;4.97;;;10.50;80.80;;;;;;1905284;75;21031;-42
2021/12/26 09:31:13;;;;;;;6.85;4.67;;;10.50;81.00;;;;;;1905366;75;21027;-40
2021/12/26 09:33:42;;;;;;;5.72;3.67;;;10.50;80.10;;;;;;1905433;75;21017;-41
2021/12/26 09:36:11;;;;;;;9.40;4.00;;;10.50;80.80;;;;;;1905278;74;21520;-40
2021/12/26 09:38:40;;;;;;;9.03;5.17;;;10.50;80.40;;;;;;1905328;75;21089;-41
2021/12/26 09:41:10;;;;;;;11.20;4.87;;;10.60;80.10;;;;;;1905383;75;21024;-41
2021/12/26 09:43:40;;;;;;;6.30;3.90;;;10.60;80.30;;;;;;1905671;75;21019;-40
2021/12/26 09:46:09;;;;;;;5.17;2.72;;;10.60;80.30;;;;;;1905272;75;21085;-40
2021/12/26 09:48:38;;;;;;;5.00;4.00;;;10.60;79.50;;;;;;1905455;75;21140;-41
2021/12/26 09:51:08;;;;;;;11.22;4.83;;;10.60;79.70;;;;;;1905316;74;21067;-40
2021/12/26 09:53:39;;;;;;;5.15;4.00;;;10.70;80.10;;;;;;1905467;75;21027;-40
2021/12/26 09:56:10;;;;;;;11.88;4.30;;;10.70;80.10;;;;;;1905115;74;21071;-39
2021/12/26 09:58:57;;;;;;;8.13;4.58;;;10.70;80.10;;;;;;1905334;75;21184;-40
2021/12/26 10:01:35;;;;;;;6.28;3.33;;;10.80;79.80;;;;;;1905292;75;21085;-40
2021/12/26 10:04:06;;;;;;;7.90;3.40;;;10.80;78.90;;;;;;1905373;75;21027;-40
2021/12/26 10:06:36;;;;;;;7.92;4.12;;;10.80;79.40;;;;;;1904636;74;21523;-41
2021/12/26 10:09:11;;;;;;;12.37;4.60;;;10.80;79.40;;;;;;1905251;74;21047;-40
2021/12/26 10:11:41;;;;;;;;;;;10.90;79.60;;;;;;1908160;75;21106;-40
2021/12/26 10:14:17;;;;;;;8.25;3.55;;;10.90;79.40;;;;;;1905320;74;20127;-41
2021/12/26 10:16:48;;;;;;;5.95;3.72;;;10.90;79.30;;;;;;1905453;75;21019;-40
2021/12/26 10:19:18;;;;;;;9.98;4.25;;;10.90;79.70;;;;;;1904430;74;21087;-40
2021/12/26 10:21:52;;;;;;;9.25;4.35;;;10.80;80.00;;;;;;1905236;75;21058;-40
2021/12/26 10:24:24;;;;;;;9.28;4.62;;;10.80;80.00;;;;;;1905486;75;21453;-40
2021/12/26 10:26:59;;;;;;;10.20;4.40;;;10.80;79.80;;;;;;1905266;75;20983;-40
2021/12/26 10:29:34;;;;;;;8.80;4.60;;;10.80;80.00;;;;;;1905581;75;21192;-41
2021/12/26 10:32:06;;;;;;;10.98;5.92;;;10.80;80.30;;;;;;1905513;75;21023;-40
2021/12/26 10:34:47;;;;;;;12.93;6.72;;;10.70;80.50;;;;;;1905329;75;20996;-41
2021/12/26 10:37:23;;;;;;;7.95;4.22;;;10.70;80.60;;;;;;1905252;75;21047;-40
2021/12/26 10:39:55;;;;;;;7.47;4.28;;;10.70;80.30;;;;;;1905237;74;21015;-40
2021/12/26 10:42:33;;;;;;;8.28;4.72;;;10.70;80.60;;;;;;1905335;75;21160;-40
2021/12/26 10:45:01;;;;;;;6.95;3.67;;;10.70;80.60;;;;;;1903492;74;21051;-40
2021/12/26 10:47:33;;;;;;;6.83;3.92;;;10.70;80.50;;;;;;1905369;75;21074;-40
2021/12/26 10:50:14;;;;;;;5.95;3.58;;;10.70;80.30;;;;;;1905250;75;21028;-41
2021/12/26 10:52:52;;;;;;;5.97;3.02;;;10.70;79.90;;;;;;1905321;75;21047;-40
2021/12/26 10:55:29;;;;;;;8.90;5.03;;;10.70;80.10;;;;;;1905240;75;21023;-40
2021/12/26 10:58:00;;;;;;;5.42;3.15;;;10.70;80.60;;;;;;1890659;74;21024;-40
2021/12/26 11:00:42;;;;;;;8.68;4.92;;;10.60;80.50;;;;;;1905172;74;21055;-40
2021/12/26 11:03:13;;;;;;;6.05;4.12;;;10.60;81.10;;;;;;1905262;75;21089;-41
2021/12/26 11:05:47;;;;;;;5.47;3.55;;;10.60;81.40;;;;;;1905184;75;20991;-40
2021/12/26 11:08:19;;;;;;;9.55;4.22;;;10.60;81.80;;;;;;1905456;75;21085;-40
2021/12/26 11:10:51;;;;;;;7.45;5.50;;;10.50;82.20;;;;;;1923872;74;21102;-40
2021/12/26 11:13:23;;;;;;;8.58;4.10;;;10.50;82.30;;;;;;1924858;74;21018;-40
2021/12/26 11:15:57;;;;;;;8.85;4.67;;;10.50;82.60;;;;;;1924679;74;21010;-40
2021/12/26 11:18:27;;;;;;;6.37;3.85;;;10.40;83.00;;;;;;1924961;74;21031;-40
2021/12/26 11:20:58;;;;;;;9.23;4.87;;;10.40;83.10;;;;;;1924706;74;20995;-40
2021/12/26 11:23:30;;;;;;;15.08;6.15;;;10.40;83.20;;;;;;1924882;74;21104;-41
2021/12/26 11:26:05;;;;;;;10.75;5.83;;;10.40;83.40;;;;;;1924854;74;21026;-41
2021/12/26 11:28:40;;;;;;;9.48;4.28;;;10.40;83.60;;;;;;1924961;74;21429;-40
2021/12/26 11:31:16;;;;;;;9.18;4.45;;;10.40;83.50;;;;;;1924885;74;21054;-41
2021/12/26 11:33:49;;;;;;;6.30;4.10;;;10.40;83.70;;;;;;1924766;74;21019;-41
2021/12/26 11:36:18;;;;;;;6.20;4.12;;;10.40;83.30;;;;;;1924622;74;21081;-41
2021/12/26 11:38:50;;;;;;;11.70;5.78;;;10.40;83.40;;;;;;1923613;74;21085;-41
2021/12/26 11:41:41;;;;;;;10.03;4.83;;;10.40;83.30;;;;;;1878998;74;21003;-41
2021/12/26 11:44:57;;;;;;;4.83;2.85;;;10.40;83.60;;;;;;1924668;74;21630;-40
2021/12/26 11:47:58;;;;;;;;;;;10.40;83.80;;;;;;1927176;74;21110;-41
2021/12/26 11:50:59;;;;;;;5.45;3.37;;;10.40;83.50;;;;;;1924423;74;20108;-40
2021/12/26 11:53:50;;;;;;;;;;;10.40;83.50;;;;;;1924863;74;21457;-41
2021/12/26 11:56:43;;;;;;;8.53;5.03;;;10.40;83.30;;;;;;1922707;74;20100;-40
2021/12/26 11:59:27;;;;;;;5.17;3.75;;;10.40;83.30;;;;;;1924600;74;21100;-41
2021/12/26 12:01:58;;;;;;;7.78;3.27;;;10.30;83.40;;;;;;1924473;74;21055;-40
2021/12/26 12:04:28;;;;;;;9.38;5.42;;;10.30;83.10;;;;;;1924666;74;21015;-40
2021/12/26 12:06:59;;;;;;;5.85;3.05;;;10.30;83.30;;;;;;1924554;74;21084;-41
2021/12/26 12:09:34;;;;;;;11.40;4.72;;;10.30;83.10;;;;;;1924180;74;21070;-41
2021/12/26 12:12:14;;;;;;;68.42;31.52;;;10.30;82.70;;;;;;1924779;74;21429;-41
2021/12/26 12:14:58;;;;;;;7.90;4.55;;;10.30;82.80;;;;;;1924604;74;21414;-41
2021/12/26 12:17:30;;;;;;;10.63;4.78;;;10.40;83.10;;;;;;1924779;74;21014;-42
2021/12/26 12:20:14;;;;;;;8.28;3.50;;;10.30;82.90;;;;;;1924846;74;21139;-41
2021/12/26 12:23:09;;;;;;;7.50;4.30;;;10.30;82.90;;;;;;1925063;74;21038;-41
2021/12/26 12:25:49;;;;;;;7.30;4.22;;;10.30;82.70;;;;;;1924830;74;21326;-40
2021/12/26 12:28:23;;;;;;;9.43;3.90;;;10.30;82.90;;;;;;1924302;74;21172;-40
2021/12/26 12:31:01;;;;;;;9.33;4.20;;;10.30;82.70;;;;;;1924197;74;21108;-42
2021/12/26 12:33:38;;;;;;;7.50;3.65;;;10.30;82.80;;;;;;1924692;74;21595;-40
2021/12/26 12:36:10;;;;;;;7.00;4.12;;;10.30;82.80;;;;;;1924794;74;21047;-40
2021/12/26 12:38:46;;;;;;;8.90;4.92;;;10.30;83.00;;;;;;1920928;74;21058;-40
2021/12/26 12:41:35;;;;;;;3.00;2.70;;;10.30;83.00;;;;;;1924863;74;21163;-40
2021/12/26 12:44:10;;;;;;;9.00;5.22;;;10.30;82.30;;;;;;1924755;74;21027;-40
2021/12/26 12:47:00;;;;;;;5.35;3.17;;;10.30;82.70;;;;;;1922808;74;21433;-40
2021/12/26 12:49:50;;;;;;;9.78;5.10;;;10.20;82.60;;;;;;1924773;74;21162;-40
2021/12/26 12:52:46;;;;;;;5.70;4.15;;;10.20;82.90;;;;;;1924685;74;21054;-40
2021/12/26 12:55:24;;;;;;;5.85;3.92;;;10.20;82.90;;;;;;1923764;74;21035;-40
2021/12/26 12:57:56;;;;;;;8.38;5.35;;;10.20;83.00;;;;;;1921678;74;21019;-41
2021/12/26 13:00:28;;;;;;;10.75;4.78;;;10.20;83.20;;;;;;1924826;74;21023;-39
2021/12/26 13:02:59;;;;;;;7.75;4.83;;;10.20;83.30;;;;;;1924802;74;21018;-40
2021/12/26 13:05:31;;;;;;;7.20;4.92;;;10.10;83.60;;;;;;1924786;74;21081;-40
2021/12/26 13:08:12;;;;;;;7.80;4.62;;;10.10;83.70;;;;;;1924792;74;21042;-40
2021/12/26 13:10:42;;;;;;;6.65;4.40;;;10.10;83.80;;;;;;1915679;74;21061;-40
2021/12/26 13:13:14;;;;;;;6.85;4.92;;;10.10;83.80;;;;;;1905244;74;21039;-40
2021/12/26 13:16:02;;;;;;;4.97;3.55;;;10.10;84.10;;;;;;1905412;75;21573;-40
2021/12/26 13:18:39;;;;;;;6.60;5.35;;;10.00;84.20;;;;;;1905357;75;20995;-40
2021/12/26 13:21:10;;;;;;;9.50;6.05;;;10.00;84.10;;;;;;1905342;75;21016;-40
2021/12/26 13:23:42;;;;;;;7.58;5.60;;;10.10;84.30;;;;;;1905422;75;21133;-40
2021/12/26 13:26:12;;;;;;;5.28;3.70;;;10.00;84.50;;;;;;1905250;75;21573;-41